createdAt,value
2022-09-03T00:00:22.039Z,0
2022-09-03T00:01:22.230Z,0
2022-09-03T00:02:22.074Z,0
2022-09-03T00:03:22.041Z,0
2022-09-03T00:04:30.551Z,0
2022-09-03T00:05:22.676Z,0
2022-09-03T00:06:22.041Z,0
2022-09-03T00:07:21.992Z,0
2022-09-03T00:08:22.226Z,0
2022-09-03T00:09:22.533Z,0
2022-09-03T00:10:24.935Z,0
2022-09-03T00:11:23.490Z,0
2022-09-03T00:12:22.016Z,0
2022-09-03T00:13:22.008Z,0
2022-09-03T00:14:22.021Z,0
2022-09-03T00:15:22.014Z,0
2022-09-03T00:16:25.260Z,0
2022-09-03T00:17:22.019Z,0
2022-09-03T00:18:22.246Z,0
2022-09-03T00:19:22.024Z,0
2022-09-03T00:20:22.028Z,0
2022-09-03T00:21:25.059Z,0
2022-09-03T00:22:22.025Z,0
2022-09-03T00:23:22.034Z,0
2022-09-03T00:24:22.110Z,0
2022-09-03T00:25:22.041Z,0
2022-09-03T00:26:22.088Z,0
2022-09-03T00:27:25.145Z,0
2022-09-03T00:28:22.138Z,0
2022-09-03T00:29:22.040Z,0
2022-09-03T00:30:26.643Z,0
2022-09-03T00:31:22.311Z,0
2022-09-03T00:32:25.127Z,0
2022-09-03T00:33:22.034Z,0
2022-09-03T00:34:22.072Z,0
2022-09-03T00:35:22.057Z,0
2022-09-03T00:36:22.093Z,0
2022-09-03T00:37:23.287Z,0
2022-09-03T00:38:25.291Z,0
2022-09-03T00:39:22.275Z,0
2022-09-03T00:40:22.062Z,0
2022-09-03T00:41:22.095Z,0
2022-09-03T00:42:22.063Z,0
2022-09-03T00:43:24.984Z,0
2022-09-03T00:44:22.065Z,0
2022-09-03T00:45:22.061Z,0
2022-09-03T00:48:48.838Z,0
2022-09-03T00:49:24.853Z,0
2022-09-03T00:50:22.086Z,0
2022-09-03T00:51:22.089Z,0
2022-09-03T00:52:25.415Z,0
2022-09-03T00:53:22.115Z,0
2022-09-03T00:54:25.111Z,0
2022-09-03T00:55:22.087Z,0
2022-09-03T00:56:22.115Z,0
2022-09-03T00:57:22.129Z,0
2022-09-03T00:58:22.212Z,0
2022-09-03T00:59:22.141Z,0
2022-09-03T01:00:22.112Z,0
2022-09-03T01:01:22.718Z,0
2022-09-03T01:02:22.783Z,0
2022-09-03T01:03:22.146Z,0
2022-09-03T01:04:22.154Z,0
2022-09-03T01:05:24.844Z,0
2022-09-03T01:06:23.421Z,0
2022-09-03T01:07:22.137Z,0
2022-09-03T01:08:22.195Z,0
2022-09-03T01:09:22.128Z,0
2022-09-03T01:10:22.144Z,0
2022-09-03T01:11:22.127Z,0
2022-09-03T01:12:23.102Z,0
2022-09-03T01:13:22.110Z,0
2022-09-03T01:14:22.123Z,0
2022-09-03T01:15:22.118Z,0
2022-09-03T01:16:25.551Z,0
2022-09-03T01:17:22.124Z,0
2022-09-03T01:18:22.399Z,0
2022-09-03T01:19:22.138Z,0
2022-09-03T01:20:22.125Z,0
2022-09-03T01:21:22.126Z,0
2022-09-03T01:22:22.130Z,0
2022-09-03T01:23:22.136Z,0
2022-09-03T01:24:22.144Z,0
2022-09-03T01:25:22.182Z,0
2022-09-03T01:26:22.126Z,0
2022-09-03T01:27:23.319Z,0
2022-09-03T01:28:22.285Z,0
2022-09-03T01:29:22.162Z,0
2022-09-03T01:30:22.141Z,0
2022-09-03T01:31:22.500Z,0
2022-09-03T01:32:22.163Z,0
2022-09-03T01:33:22.145Z,0
2022-09-03T01:34:22.161Z,0
2022-09-03T01:35:22.195Z,0
2022-09-03T01:36:22.142Z,0
2022-09-03T01:37:22.152Z,0
2022-09-03T01:38:25.333Z,0
2022-09-03T01:39:22.340Z,0
2022-09-03T01:40:22.156Z,0
2022-09-03T01:41:22.180Z,0
2022-09-03T01:42:27.182Z,0
2022-09-03T01:43:24.966Z,0
2022-09-03T01:44:22.194Z,0
2022-09-03T01:45:22.161Z,0
2022-09-03T01:46:24.370Z,0
2022-09-03T01:47:22.167Z,0
2022-09-03T01:48:22.459Z,0
2022-09-03T01:49:22.181Z,0
2022-09-03T01:50:22.223Z,0
2022-09-03T01:51:22.187Z,0
2022-09-03T01:52:22.175Z,0
2022-09-03T01:53:22.311Z,0
2022-09-03T01:54:28.277Z,0
2022-09-03T01:55:22.179Z,0
2022-09-03T01:56:22.193Z,0
2022-09-03T01:57:44.309Z,0
2022-09-03T01:58:22.318Z,0
2022-09-03T01:59:22.225Z,0
2022-09-03T02:00:22.198Z,0
2022-09-03T02:01:25.119Z,0
2022-09-03T02:02:22.553Z,0
2022-09-03T02:03:22.198Z,0
2022-09-03T02:04:22.216Z,0
2022-09-03T02:05:22.208Z,0
2022-09-03T02:06:22.214Z,0
2022-09-03T02:07:22.210Z,0
2022-09-03T02:08:22.365Z,0
2022-09-03T02:09:23.211Z,0
2022-09-03T02:10:22.617Z,0
2022-09-03T02:11:23.581Z,0
2022-09-03T02:12:22.228Z,0
2022-09-03T02:13:22.215Z,0
2022-09-03T02:14:22.226Z,0
2022-09-03T02:15:23.811Z,0
2022-09-03T02:16:22.701Z,0
2022-09-03T02:17:22.228Z,0
2022-09-03T02:18:22.452Z,0
2022-09-03T02:19:22.239Z,0
2022-09-03T02:20:22.238Z,0
2022-09-03T02:21:24.820Z,0
2022-09-03T02:22:22.229Z,0
2022-09-03T02:23:30.034Z,0
2022-09-03T02:24:22.285Z,0
2022-09-03T02:25:22.238Z,0
2022-09-03T02:26:24.997Z,0
2022-09-03T02:27:22.259Z,0
2022-09-03T02:28:23.994Z,0
2022-09-03T02:29:22.246Z,0
2022-09-03T02:30:22.248Z,0
2022-09-03T02:31:22.593Z,0
2022-09-03T02:32:25.361Z,0
2022-09-03T02:33:22.259Z,0
2022-09-03T02:34:22.280Z,0
2022-09-03T02:35:22.253Z,0
2022-09-03T02:36:22.252Z,0
2022-09-03T02:37:25.152Z,0
2022-09-03T02:38:22.807Z,0
2022-09-03T02:39:22.513Z,0
2022-09-03T02:40:22.271Z,0
2022-09-03T02:41:22.309Z,0
2022-09-03T02:42:22.266Z,0
2022-09-03T02:43:26.205Z,0
2022-09-03T02:44:22.293Z,0
2022-09-03T02:45:22.337Z,0
2022-09-03T02:46:22.760Z,0
2022-09-03T02:47:22.278Z,0
2022-09-03T02:48:25.865Z,0
2022-09-03T02:49:22.303Z,0
2022-09-03T02:50:22.273Z,0
2022-09-03T02:51:22.286Z,0
2022-09-03T02:52:22.289Z,0
2022-09-03T02:53:22.281Z,0
2022-09-03T02:54:28.443Z,0
2022-09-03T02:55:22.309Z,0
2022-09-03T02:56:22.283Z,0
2022-09-03T02:57:32.261Z,0
2022-09-03T02:58:22.540Z,0
2022-09-03T02:59:25.083Z,0
2022-09-03T03:00:22.321Z,0
2022-09-03T03:01:30.889Z,0
2022-09-03T03:02:22.564Z,0
2022-09-03T03:03:22.395Z,0
2022-09-03T03:04:22.300Z,0
2022-09-03T03:05:25.409Z,0
2022-09-03T03:06:22.307Z,0
2022-09-03T03:07:22.315Z,0
2022-09-03T03:08:22.508Z,0
2022-09-03T03:09:22.352Z,0
2022-09-03T03:10:25.355Z,0
2022-09-03T03:11:22.308Z,0
2022-09-03T03:12:22.352Z,0
2022-09-03T03:13:22.335Z,0
2022-09-03T03:14:22.327Z,0
2022-09-03T03:15:22.337Z,0
2022-09-03T03:16:25.755Z,0
2022-09-03T03:17:22.329Z,0
2022-09-03T03:18:22.430Z,0
2022-09-03T03:19:22.343Z,0
2022-09-03T03:20:22.363Z,0
2022-09-03T03:21:25.120Z,0
2022-09-03T03:22:22.337Z,0
2022-09-03T03:23:22.342Z,0
2022-09-03T03:24:22.330Z,0
2022-09-03T03:25:23.858Z,0
2022-09-03T03:26:22.337Z,0
2022-09-03T03:27:22.349Z,0
2022-09-03T03:28:22.533Z,0
2022-09-03T03:29:22.342Z,0
2022-09-03T03:30:22.392Z,0
2022-09-03T03:31:22.671Z,0
2022-09-03T03:32:25.510Z,0
2022-09-03T03:33:24.248Z,0
2022-09-03T03:34:22.357Z,0
2022-09-03T03:35:22.381Z,0
2022-09-03T03:36:22.367Z,0
2022-09-03T03:37:22.358Z,0
2022-09-03T03:38:22.535Z,0
2022-09-03T03:39:22.569Z,0
2022-09-03T03:40:22.390Z,0
2022-09-03T03:41:22.359Z,0
2022-09-03T03:42:22.363Z,0
2022-09-03T03:43:25.391Z,0
2022-09-03T03:44:22.364Z,0
2022-09-03T03:45:22.406Z,0
2022-09-03T03:46:22.730Z,0
2022-09-03T03:47:22.377Z,0
2022-09-03T03:48:22.933Z,0
2022-09-03T03:49:22.379Z,0
2022-09-03T03:50:22.397Z,0
2022-09-03T03:51:22.376Z,0
2022-09-03T03:52:22.388Z,0
2022-09-03T03:53:22.379Z,0
2022-09-03T03:54:27.567Z,0
2022-09-03T03:55:22.843Z,0
2022-09-03T03:56:22.402Z,0
2022-09-03T03:57:22.396Z,0
2022-09-03T03:58:22.626Z,0
2022-09-03T03:59:22.402Z,0
2022-09-03T04:00:22.414Z,0
2022-09-03T04:01:22.565Z,0
2022-09-03T04:02:22.706Z,0
2022-09-03T04:03:22.434Z,0
2022-09-03T04:04:22.441Z,0
2022-09-03T04:05:37.981Z,0
2022-09-03T04:06:23.040Z,0
2022-09-03T04:07:22.441Z,0
2022-09-03T04:08:22.560Z,0
2022-09-03T04:09:22.465Z,0
2022-09-03T04:10:23.752Z,0
2022-09-03T04:11:22.457Z,0
2022-09-03T04:12:22.458Z,0
2022-09-03T04:13:22.441Z,0
2022-09-03T04:14:22.431Z,4
2022-09-03T04:15:22.466Z,0
2022-09-03T04:16:22.745Z,0
2022-09-03T04:17:27.747Z,0
2022-09-03T04:18:22.632Z,0
2022-09-03T04:19:22.460Z,4
2022-09-03T04:20:22.485Z,4
2022-09-03T04:21:26.879Z,0
2022-09-03T04:22:22.429Z,4
2022-09-03T04:23:22.436Z,4
2022-09-03T04:24:22.433Z,0
2022-09-03T04:25:22.450Z,4
2022-09-03T04:26:22.445Z,4
2022-09-03T04:27:22.442Z,4
2022-09-03T04:28:24.478Z,4
2022-09-03T04:29:22.447Z,8
2022-09-03T04:30:23.335Z,8
2022-09-03T04:31:22.775Z,8
2022-09-03T04:32:22.458Z,8
2022-09-03T04:33:23.136Z,8
2022-09-03T04:34:22.449Z,12
2022-09-03T04:35:22.454Z,12
2022-09-03T04:36:22.459Z,12
2022-09-03T04:37:22.454Z,16
2022-09-03T04:38:22.572Z,16
2022-09-03T04:39:22.619Z,16
2022-09-03T04:40:23.510Z,20
2022-09-03T04:41:22.477Z,20
2022-09-03T04:42:22.464Z,20
2022-09-03T04:43:22.475Z,20
2022-09-03T04:44:22.482Z,24
2022-09-03T04:45:22.500Z,24
2022-09-03T04:46:24.566Z,24
2022-09-03T04:47:22.467Z,24
2022-09-03T04:48:25.764Z,28
2022-09-03T04:49:22.477Z,32
2022-09-03T04:50:22.497Z,32
2022-09-03T04:51:22.482Z,36
2022-09-03T04:52:22.481Z,36
2022-09-03T04:53:25.298Z,36
2022-09-03T04:54:22.479Z,40
2022-09-03T04:55:22.496Z,44
2022-09-03T04:56:22.503Z,44
2022-09-03T04:57:22.496Z,48
2022-09-03T04:58:23.970Z,52
2022-09-03T04:59:25.498Z,56
2022-09-03T05:00:24.427Z,60
2022-09-03T05:01:22.858Z,64
2022-09-03T05:02:22.835Z,68
2022-09-03T05:03:22.503Z,72
2022-09-03T05:04:25.308Z,72
2022-09-03T05:05:22.540Z,72
2022-09-03T05:06:22.512Z,72
2022-09-03T05:07:24.924Z,76
2022-09-03T05:08:23.620Z,76
2022-09-03T05:09:22.511Z,80
2022-09-03T05:10:24.000Z,84
2022-09-03T05:11:22.513Z,84
2022-09-03T05:12:22.527Z,84
2022-09-03T05:13:23.276Z,88
2022-09-03T05:14:22.514Z,88
2022-09-03T05:15:26.328Z,84
2022-09-03T05:16:22.829Z,84
2022-09-03T05:17:22.529Z,84
2022-09-03T05:18:22.614Z,84
2022-09-03T05:19:22.524Z,84
2022-09-03T05:20:24.543Z,92
2022-09-03T05:21:25.597Z,96
2022-09-03T05:22:22.527Z,104
2022-09-03T05:23:22.571Z,108
2022-09-03T05:24:22.550Z,112
2022-09-03T05:25:22.538Z,116
2022-09-03T05:26:25.361Z,124
2022-09-03T05:27:22.554Z,124
2022-09-03T05:28:22.709Z,124
2022-09-03T05:29:22.540Z,132
2022-09-03T05:30:22.558Z,136
2022-09-03T05:31:22.876Z,136
2022-09-03T05:32:25.630Z,140
2022-09-03T05:33:22.547Z,144
2022-09-03T05:34:23.275Z,152
2022-09-03T05:35:29.016Z,160
2022-09-03T05:36:22.554Z,164
2022-09-03T05:37:25.393Z,176
2022-09-03T05:38:22.626Z,184
2022-09-03T05:39:22.773Z,192
2022-09-03T05:40:22.561Z,204
2022-09-03T05:41:23.643Z,216
2022-09-03T05:42:22.573Z,224
2022-09-03T05:43:28.395Z,228
2022-09-03T05:44:22.560Z,236
2022-09-03T05:45:22.687Z,248
2022-09-03T05:46:22.599Z,256
2022-09-03T05:47:22.568Z,252
2022-09-03T05:48:26.092Z,252
2022-09-03T05:49:22.568Z,260
2022-09-03T05:50:22.575Z,272
2022-09-03T05:51:22.606Z,284
2022-09-03T05:52:22.579Z,308
2022-09-03T05:53:22.727Z,336
2022-09-03T05:54:25.470Z,340
2022-09-03T05:55:24.287Z,352
2022-09-03T05:56:22.657Z,328
2022-09-03T05:57:22.589Z,332
2022-09-03T05:58:22.600Z,332
2022-09-03T05:59:25.402Z,352
2022-09-03T06:00:22.594Z,344
2022-09-03T06:01:22.662Z,340
2022-09-03T06:02:27.121Z,332
2022-09-03T06:03:23.538Z,328
2022-09-03T06:04:22.621Z,344
2022-09-03T06:05:22.614Z,344
2022-09-03T06:06:22.636Z,356
2022-09-03T06:07:22.616Z,368
2022-09-03T06:08:22.607Z,364
2022-09-03T06:09:23.056Z,376
2022-09-03T06:10:40.938Z,432
2022-09-03T06:11:22.629Z,472
2022-09-03T06:12:22.620Z,528
2022-09-03T06:13:22.734Z,680
2022-09-03T06:14:22.622Z,848
2022-09-03T06:15:22.613Z,876
2022-09-03T06:16:34.197Z,792
2022-09-03T06:17:22.632Z,700
2022-09-03T06:18:22.738Z,664
2022-09-03T06:19:22.632Z,788
2022-09-03T06:20:22.630Z,756
2022-09-03T06:21:25.689Z,596
2022-09-03T06:22:22.627Z,596
2022-09-03T06:23:22.638Z,588
2022-09-03T06:24:23.296Z,684
2022-09-03T06:25:23.411Z,464
2022-09-03T06:26:22.665Z,444
2022-09-03T06:27:26.939Z,488
2022-09-03T06:28:29.075Z,484
2022-09-03T06:29:22.638Z,356
2022-09-03T06:30:22.660Z,332
2022-09-03T06:31:22.878Z,320
2022-09-03T06:32:25.652Z,316
2022-09-03T06:33:22.780Z,320
2022-09-03T06:34:22.775Z,332
2022-09-03T06:35:22.698Z,356
2022-09-03T06:36:22.687Z,360
2022-09-03T06:37:25.683Z,368
2022-09-03T06:38:22.758Z,360
2022-09-03T06:39:22.813Z,344
2022-09-03T06:40:22.704Z,340
2022-09-03T06:41:22.669Z,332
2022-09-03T06:42:22.673Z,320
2022-09-03T06:43:22.659Z,344
2022-09-03T06:44:22.673Z,368
2022-09-03T06:45:22.768Z,376
2022-09-03T06:46:22.751Z,412
2022-09-03T06:47:22.675Z,576
2022-09-03T06:48:25.554Z,616
2022-09-03T06:49:22.682Z,1020
2022-09-03T06:50:22.675Z,912
2022-09-03T06:51:22.696Z,956
2022-09-03T06:52:22.745Z,624
2022-09-03T06:53:22.688Z,492
2022-09-03T06:54:22.690Z,440
2022-09-03T06:55:22.683Z,420
2022-09-03T06:56:22.696Z,416
2022-09-03T06:57:22.699Z,428
2022-09-03T06:58:22.884Z,448
2022-09-03T06:59:22.883Z,480
2022-09-03T07:00:22.707Z,532
2022-09-03T07:01:23.563Z,632
2022-09-03T07:02:23.458Z,728
2022-09-03T07:03:22.693Z,736
2022-09-03T07:04:24.827Z,828
2022-09-03T07:05:22.722Z,944
2022-09-03T07:06:22.741Z,1184
2022-09-03T07:07:22.716Z,1388
2022-09-03T07:08:22.783Z,1324
2022-09-03T07:09:23.087Z,2412
2022-09-03T07:10:22.764Z,3224
2022-09-03T07:11:22.748Z,2960
2022-09-03T07:12:22.737Z,3276
2022-09-03T07:13:22.723Z,3316
2022-09-03T07:14:22.726Z,3460
2022-09-03T07:15:25.746Z,3388
2022-09-03T07:16:22.972Z,3476
2022-09-03T07:17:22.733Z,3300
2022-09-03T07:18:22.865Z,3220
2022-09-03T07:19:22.757Z,3536
2022-09-03T07:20:25.607Z,3624
2022-09-03T07:21:22.835Z,2904
2022-09-03T07:22:22.742Z,2552
2022-09-03T07:23:22.745Z,2208
2022-09-03T07:24:22.927Z,1408
2022-09-03T07:25:22.811Z,2360
2022-09-03T07:26:26.010Z,2996
2022-09-03T07:27:22.758Z,3264
2022-09-03T07:28:23.702Z,2480
2022-09-03T07:29:23.669Z,2200
2022-09-03T07:30:22.755Z,1244
2022-09-03T07:31:26.236Z,1444
2022-09-03T07:32:22.834Z,860
2022-09-03T07:33:22.760Z,648
2022-09-03T07:34:25.439Z,528
2022-09-03T07:35:24.004Z,528
2022-09-03T07:36:23.912Z,580
2022-09-03T07:37:25.548Z,696
2022-09-03T07:38:22.784Z,816
2022-09-03T07:39:23.221Z,568
2022-09-03T07:40:22.773Z,532
2022-09-03T07:41:33.847Z,500
2022-09-03T07:42:25.676Z,484
2022-09-03T07:43:22.639Z,468
2022-09-03T07:44:23.110Z,464
2022-09-03T07:45:22.774Z,476
2022-09-03T07:46:22.983Z,500
2022-09-03T07:47:31.593Z,532
2022-09-03T07:48:25.721Z,540
2022-09-03T07:49:22.786Z,568
2022-09-03T07:50:22.907Z,608
2022-09-03T07:51:22.786Z,620
2022-09-03T07:52:25.148Z,760
2022-09-03T07:53:25.561Z,712
2022-09-03T07:54:22.789Z,824
2022-09-03T07:55:22.790Z,1344
2022-09-03T07:56:22.797Z,2624
2022-09-03T07:57:22.817Z,2640
2022-09-03T07:58:22.857Z,2564
2022-09-03T07:59:26.284Z,2988
2022-09-03T08:00:23.003Z,2928
2022-09-03T08:01:23.066Z,2828
2022-09-03T08:02:22.830Z,2740
2022-09-03T08:03:22.814Z,2712
2022-09-03T08:04:26.059Z,2600
2022-09-03T08:05:22.840Z,2580
2022-09-03T08:06:22.851Z,2280
2022-09-03T08:07:23.122Z,2168
2022-09-03T08:08:24.421Z,2428
2022-09-03T08:09:22.816Z,2468
2022-09-03T08:10:25.946Z,1600
2022-09-03T08:11:22.823Z,2520
2022-09-03T08:12:22.839Z,2464
2022-09-03T08:13:22.832Z,2424
2022-09-03T08:14:22.836Z,2404
2022-09-03T08:15:25.728Z,2376
2022-09-03T08:16:23.143Z,996
2022-09-03T08:17:22.859Z,948
2022-09-03T08:18:23.883Z,1216
2022-09-03T08:19:23.150Z,1912
2022-09-03T08:20:22.834Z,1208
2022-09-03T08:21:25.612Z,1504
2022-09-03T08:22:22.896Z,1684
2022-09-03T08:23:22.846Z,1732
2022-09-03T08:24:22.843Z,1336
2022-09-03T08:25:22.846Z,1368
2022-09-03T08:26:25.935Z,1956
2022-09-03T08:27:22.927Z,1948
2022-09-03T08:28:22.920Z,960
2022-09-03T08:29:22.881Z,836
2022-09-03T08:30:22.874Z,760
2022-09-03T08:31:23.211Z,752
2022-09-03T08:32:22.885Z,760
2022-09-03T08:33:22.876Z,768
2022-09-03T08:34:22.870Z,760
2022-09-03T08:35:22.867Z,800
2022-09-03T08:36:22.893Z,776
2022-09-03T08:37:25.923Z,732
2022-09-03T08:38:22.877Z,708
2022-09-03T08:39:23.107Z,688
2022-09-03T08:40:22.884Z,680
2022-09-03T08:41:22.879Z,704
2022-09-03T08:42:22.907Z,684
2022-09-03T08:43:22.886Z,668
2022-09-03T08:44:23.001Z,680
2022-09-03T08:45:22.914Z,692
2022-09-03T08:46:23.108Z,724
2022-09-03T08:47:22.932Z,756
2022-09-03T08:48:30.764Z,820
2022-09-03T08:49:22.893Z,864
2022-09-03T08:50:22.909Z,912
2022-09-03T08:51:22.907Z,932
2022-09-03T08:52:23.078Z,960
2022-09-03T08:53:22.905Z,952
2022-09-03T08:54:22.899Z,1064
2022-09-03T08:55:22.999Z,1092
2022-09-03T08:56:22.936Z,1204
2022-09-03T08:57:22.932Z,1404
2022-09-03T08:58:23.026Z,1420
2022-09-03T08:59:32.934Z,1968
2022-09-03T09:00:23.150Z,1880
2022-09-03T09:01:23.121Z,1464
2022-09-03T09:02:23.717Z,1248
2022-09-03T09:03:22.923Z,1688
2022-09-03T09:04:25.720Z,1572
2022-09-03T09:05:30.157Z,1164
2022-09-03T09:06:22.920Z,984
2022-09-03T09:07:23.016Z,744
2022-09-03T09:08:22.997Z,1048
2022-09-03T09:09:22.939Z,1060
2022-09-03T09:10:23.002Z,1104
2022-09-03T09:11:22.931Z,1112
2022-09-03T09:12:23.032Z,904
2022-09-03T09:13:23.048Z,892
2022-09-03T09:14:23.004Z,860
2022-09-03T09:15:25.819Z,968
2022-09-03T09:16:23.343Z,1020
2022-09-03T09:17:23.011Z,1196
2022-09-03T09:18:23.298Z,1380
2022-09-03T09:19:22.946Z,1456
2022-09-03T09:20:23.079Z,1448
2022-09-03T09:21:35.283Z,1688
2022-09-03T09:22:23.086Z,1672
2022-09-03T09:23:28.294Z,1820
2022-09-03T09:24:22.953Z,1836
2022-09-03T09:25:22.959Z,1672
2022-09-03T09:26:23.103Z,1628
2022-09-03T09:27:23.181Z,1580
2022-09-03T09:28:23.196Z,1756
2022-09-03T09:29:23.433Z,1668
2022-09-03T09:30:23.377Z,1720
2022-09-03T09:31:23.319Z,1580
2022-09-03T09:32:26.290Z,1776
2022-09-03T09:33:23.000Z,1828
2022-09-03T09:34:23.002Z,1200
2022-09-03T09:35:23.019Z,1796
2022-09-03T09:36:22.970Z,1776
2022-09-03T09:37:23.004Z,1780
2022-09-03T09:38:23.554Z,1740
2022-09-03T09:39:23.209Z,1716
2022-09-03T09:40:23.000Z,1700
2022-09-03T09:41:26.257Z,1680
2022-09-03T09:42:26.679Z,1660
2022-09-03T09:43:23.044Z,1676
2022-09-03T09:44:23.304Z,1676
2022-09-03T09:45:22.987Z,1688
2022-09-03T09:46:23.343Z,1680
2022-09-03T09:47:26.159Z,1676
2022-09-03T09:48:23.117Z,1668
2022-09-03T09:49:23.039Z,1564
2022-09-03T09:50:33.233Z,1640
2022-09-03T09:51:22.999Z,1628
2022-09-03T09:52:23.003Z,1544
2022-09-03T09:53:25.795Z,588
2022-09-03T09:54:23.017Z,760
2022-09-03T09:55:23.006Z,1052
2022-09-03T09:56:25.459Z,1648
2022-09-03T09:57:23.071Z,1652
2022-09-03T09:58:26.130Z,1664
2022-09-03T09:59:23.083Z,1668
2022-09-03T10:00:23.072Z,1676
2022-09-03T10:01:23.280Z,1668
2022-09-03T10:02:29.595Z,1664
2022-09-03T10:03:23.351Z,1648
2022-09-03T10:04:28.787Z,1592
2022-09-03T10:05:23.040Z,1640
2022-09-03T10:06:23.046Z,1644
2022-09-03T10:07:23.034Z,1660
2022-09-03T10:08:23.186Z,1668
2022-09-03T10:09:35.557Z,1656
2022-09-03T10:10:25.115Z,1644
2022-09-03T10:11:23.069Z,1648
2022-09-03T10:12:23.042Z,1652
2022-09-03T10:13:23.088Z,1668
2022-09-03T10:14:23.050Z,1664
2022-09-03T10:15:26.228Z,1556
2022-09-03T10:16:23.242Z,1640
2022-09-03T10:17:39.797Z,1620
2022-09-03T10:18:28.679Z,1632
2022-09-03T10:19:23.080Z,1648
2022-09-03T10:20:26.149Z,1648
2022-09-03T10:21:23.093Z,1624
2022-09-03T10:22:23.072Z,1624
2022-09-03T10:23:23.087Z,1648
2022-09-03T10:24:22.911Z,1648
2022-09-03T10:25:22.911Z,1644
2022-09-03T10:26:25.863Z,1652
2022-09-03T10:27:23.076Z,1664
2022-09-03T10:28:23.140Z,1660
2022-09-03T10:29:23.091Z,1664
2022-09-03T10:30:23.073Z,1692
2022-09-03T10:31:27.642Z,1700
2022-09-03T10:32:22.970Z,1544
2022-09-03T10:33:23.157Z,1472
2022-09-03T10:34:23.107Z,1212
2022-09-03T10:35:23.098Z,1056
2022-09-03T10:36:23.091Z,732
2022-09-03T10:37:26.106Z,672
2022-09-03T10:38:23.268Z,664
2022-09-03T10:39:23.305Z,740
2022-09-03T10:40:23.377Z,1020
2022-09-03T10:41:23.104Z,972
2022-09-03T10:42:25.877Z,736
2022-09-03T10:43:23.129Z,1160
2022-09-03T10:44:23.703Z,1640
2022-09-03T10:45:23.120Z,1344
2022-09-03T10:46:29.171Z,1448
2022-09-03T10:47:23.106Z,768
2022-09-03T10:48:26.451Z,724
2022-09-03T10:49:23.113Z,732
2022-09-03T10:50:23.279Z,864
2022-09-03T10:51:23.110Z,944
2022-09-03T10:52:23.121Z,688
2022-09-03T10:53:26.416Z,676
2022-09-03T10:54:23.133Z,624
2022-09-03T10:55:23.141Z,632
2022-09-03T10:56:23.134Z,700
2022-09-03T10:57:23.501Z,1848
2022-09-03T10:58:23.275Z,1768
2022-09-03T10:59:26.087Z,1764
2022-09-03T11:00:23.147Z,1064
2022-09-03T11:01:23.509Z,912
2022-09-03T11:02:23.408Z,1512
2022-09-03T11:03:28.025Z,976
2022-09-03T11:04:26.046Z,940
2022-09-03T11:05:23.148Z,1268
2022-09-03T11:06:23.145Z,772
2022-09-03T11:07:23.143Z,740
2022-09-03T11:08:23.285Z,684
2022-09-03T11:09:23.176Z,660
2022-09-03T11:10:30.550Z,652
2022-09-03T11:11:23.161Z,652
2022-09-03T11:12:23.156Z,664
2022-09-03T11:13:23.193Z,668
2022-09-03T11:14:23.167Z,672
2022-09-03T11:15:30.350Z,672
2022-09-03T11:16:23.670Z,680
2022-09-03T11:17:23.170Z,688
2022-09-03T11:18:23.281Z,696
2022-09-03T11:19:23.167Z,712
2022-09-03T11:20:23.171Z,720
2022-09-03T11:21:23.177Z,728
2022-09-03T11:22:27.683Z,728
2022-09-03T11:23:25.302Z,716
2022-09-03T11:24:23.191Z,720
2022-09-03T11:25:23.173Z,712
2022-09-03T11:26:25.944Z,712
2022-09-03T11:27:23.192Z,708
2022-09-03T11:28:23.361Z,708
2022-09-03T11:29:25.099Z,720
2022-09-03T11:30:23.211Z,724
2022-09-03T11:31:23.621Z,736
2022-09-03T11:32:23.194Z,760
2022-09-03T11:33:23.232Z,784
2022-09-03T11:34:38.583Z,828
2022-09-03T11:35:23.213Z,912
2022-09-03T11:36:23.207Z,1200
2022-09-03T11:37:23.314Z,872
2022-09-03T11:38:23.435Z,852
2022-09-03T11:39:23.374Z,904
2022-09-03T11:40:23.226Z,944
2022-09-03T11:41:23.246Z,968
2022-09-03T11:42:26.057Z,1080
2022-09-03T11:43:23.233Z,892
2022-09-03T11:44:23.224Z,844
2022-09-03T11:45:23.221Z,704
2022-09-03T11:46:23.600Z,632
2022-09-03T11:47:23.230Z,592
2022-09-03T11:48:23.351Z,576
2022-09-03T11:49:23.238Z,576
2022-09-03T11:50:23.576Z,588
2022-09-03T11:51:23.226Z,604
2022-09-03T11:52:23.240Z,636
2022-09-03T11:53:23.950Z,744
2022-09-03T11:54:23.515Z,688
2022-09-03T11:55:23.436Z,1612
2022-09-03T11:56:23.786Z,1600
2022-09-03T11:57:23.258Z,1576
2022-09-03T11:58:23.264Z,1544
2022-09-03T11:59:23.251Z,1520
2022-09-03T12:00:23.257Z,1492
2022-09-03T12:01:23.413Z,1476
2022-09-03T12:02:23.495Z,1456
2022-09-03T12:03:23.371Z,1432
2022-09-03T12:04:23.407Z,1412
2022-09-03T12:05:23.267Z,1396
2022-09-03T12:06:24.288Z,1380
2022-09-03T12:07:26.954Z,1364
2022-09-03T12:08:23.285Z,1368
2022-09-03T12:09:26.392Z,1360
2022-09-03T12:10:23.269Z,1340
2022-09-03T12:11:23.263Z,1328
2022-09-03T12:12:23.272Z,1092
2022-09-03T12:13:23.538Z,1376
2022-09-03T12:14:26.277Z,908
2022-09-03T12:15:23.289Z,808
2022-09-03T12:16:23.649Z,1148
2022-09-03T12:17:23.278Z,1556
2022-09-03T12:18:23.300Z,620
2022-09-03T12:19:23.294Z,580
2022-09-03T12:20:26.455Z,588
2022-09-03T12:21:23.298Z,612
2022-09-03T12:22:23.539Z,668
2022-09-03T12:23:23.564Z,692
2022-09-03T12:24:23.293Z,744
2022-09-03T12:25:26.148Z,808
2022-09-03T12:26:24.960Z,736
2022-09-03T12:27:23.309Z,604
2022-09-03T12:28:23.317Z,572
2022-09-03T12:29:33.484Z,548
2022-09-03T12:30:23.312Z,540
2022-09-03T12:31:26.276Z,552
2022-09-03T12:32:26.531Z,568
2022-09-03T12:33:23.460Z,640
2022-09-03T12:34:23.344Z,584
2022-09-03T12:36:05.573Z,584
2022-09-03T12:36:26.406Z,588
2022-09-03T12:38:08.937Z,572
2022-09-03T12:38:25.719Z,572
2022-09-03T12:40:11.201Z,624
2022-09-03T12:40:25.031Z,648
2022-09-03T12:41:34.052Z,648
2022-09-03T12:42:27.847Z,696
2022-09-03T12:43:55.737Z,624
2022-09-03T12:44:24.843Z,620
2022-09-03T12:45:25.285Z,568
2022-09-03T12:46:36.194Z,552
2022-09-03T12:47:45.574Z,552
2022-09-03T12:48:24.757Z,564
2022-09-03T12:49:43.190Z,544
2022-09-03T12:50:27.147Z,552
2022-09-03T12:52:06.820Z,560
2022-09-03T12:52:25.495Z,564
2022-09-03T12:53:27.971Z,564
2022-09-03T12:54:24.911Z,568
2022-09-03T12:55:29.569Z,580
2022-09-03T12:56:25.772Z,608
2022-09-03T12:57:24.867Z,636
2022-09-03T12:58:26.259Z,636
2022-09-03T12:59:24.862Z,636
2022-09-03T13:00:24.906Z,600
2022-09-03T13:01:25.367Z,580
2022-09-03T13:02:25.289Z,556
2022-09-03T13:03:25.141Z,532
2022-09-03T13:04:27.707Z,508
2022-09-03T13:05:25.036Z,496
2022-09-03T13:06:24.884Z,480
2022-09-03T13:07:24.907Z,460
2022-09-03T13:08:24.907Z,440
2022-09-03T13:09:27.976Z,428
2022-09-03T13:10:24.896Z,420
2022-09-03T13:11:24.732Z,404
2022-09-03T13:12:24.911Z,388
2022-09-03T13:13:25.034Z,372
2022-09-03T13:14:24.919Z,364
2022-09-03T13:15:27.676Z,352
2022-09-03T13:16:25.077Z,344
2022-09-03T13:17:24.915Z,328
2022-09-03T13:18:25.242Z,312
2022-09-03T13:19:24.918Z,296
2022-09-03T13:20:27.959Z,276
2022-09-03T13:21:24.915Z,264
2022-09-03T13:22:24.928Z,256
2022-09-03T13:23:25.239Z,260
2022-09-03T13:24:24.917Z,260
2022-09-03T13:25:24.951Z,264
2022-09-03T13:26:27.722Z,268
2022-09-03T13:27:24.937Z,268
2022-09-03T13:28:24.951Z,264
2022-09-03T13:29:24.928Z,260
2022-09-03T13:30:25.010Z,252
2022-09-03T13:31:27.811Z,248
2022-09-03T13:32:27.272Z,240
2022-09-03T13:33:29.254Z,240
2022-09-03T13:34:24.960Z,240
2022-09-03T13:35:24.941Z,252
2022-09-03T13:36:24.937Z,268
2022-09-03T13:37:27.890Z,280
2022-09-03T13:38:24.980Z,300
2022-09-03T13:39:25.124Z,340
2022-09-03T13:40:24.949Z,528
2022-09-03T13:41:24.956Z,356
2022-09-03T13:42:28.027Z,372
2022-09-03T13:43:26.239Z,404
2022-09-03T13:44:24.955Z,520
2022-09-03T13:45:24.962Z,540
2022-09-03T13:46:25.309Z,516
2022-09-03T13:47:24.969Z,596
2022-09-03T13:48:28.431Z,520
2022-09-03T13:49:24.976Z,508
2022-09-03T13:50:24.979Z,504
2022-09-03T13:51:24.989Z,532
2022-09-03T13:52:24.985Z,456
2022-09-03T13:53:28.854Z,452
2022-09-03T13:54:54.193Z,440
2022-09-03T13:55:24.976Z,440
2022-09-03T13:56:24.983Z,440
2022-09-03T13:57:26.969Z,480
2022-09-03T13:58:25.072Z,452
2022-09-03T13:59:27.527Z,432
2022-09-03T14:00:25.985Z,428
2022-09-03T14:01:25.386Z,424
2022-09-03T14:02:25.396Z,428